sensor_id;sensor_type;location;lat;lon;timestamp;P1;durP1;ratioP1;P2;durP2;ratioP2
44430;SDS011;30135;47.866;-4.222;2023-03-11T00:00:34;1.77;;;0.40;;
44430;SDS011;30135;47.866;-4.222;2023-03-11T00:03:03;2.25;;;0.60;;
44430;SDS011;30135;47.866;-4.222;2023-03-11T00:05:34;1.90;;;0.50;;
44430;SDS011;30135;47.866;-4.222;2023-03-11T00:08:04;1.13;;;0.40;;
44430;SDS011;30135;47.866;-4.222;2023-03-11T00:10:39;0.70;;;0.40;;
44430;SDS011;30135;47.866;-4.222;2023-03-11T00:13:08;1.05;;;0.88;;
44430;SDS011;30135;47.866;-4.222;2023-03-11T00:15:36;0.40;;;0.28;;
44430;SDS011;30135;47.866;-4.222;2023-03-11T00:18:04;1.42;;;0.25;;
44430;SDS011;30135;47.866;-4.222;2023-03-11T00:20:32;1.35;;;0.20;;
44430;SDS011;30135;47.866;-4.222;2023-03-11T00:23:02;1.10;;;0.47;;
44430;SDS011;30135;47.866;-4.222;2023-03-11T00:25:32;4.95;;;0.70;;
44430;SDS011;30135;47.866;-4.222;2023-03-11T00:28:04;0.85;;;0.30;;
44430;SDS011;30135;47.866;-4.222;2023-03-11T00:30:39;0.82;;;0.20;;
44430;SDS011;30135;47.866;-4.222;2023-03-11T00:33:06;2.65;;;0.45;;
44430;SDS011;30135;47.866;-4.222;2023-03-11T00:35:35;0.30;;;0.20;;
44430;SDS011;30135;47.866;-4.222;2023-03-11T00:38:02;0.20;;;0.10;;
44430;SDS011;30135;47.866;-4.222;2023-03-11T00:40:31;0.63;;;0.25;;
44430;SDS011;30135;47.866;-4.222;2023-03-11T00:43:00;5.05;;;0.50;;
44430;SDS011;30135;47.866;-4.222;2023-03-11T00:45:26;3.15;;;0.43;;
44430;SDS011;30135;47.866;-4.222;2023-03-11T00:47:54;1.65;;;0.10;;
44430;SDS011;30135;47.866;-4.222;2023-03-11T00:50:21;0.38;;;0.20;;
44430;SDS011;30135;47.866;-4.222;2023-03-11T00:52:53;0.85;;;0.10;;
44430;SDS011;30135;47.866;-4.222;2023-03-11T00:55:23;0.22;;;0.17;;
44430;SDS011;30135;47.866;-4.222;2023-03-11T00:57:53;2.20;;;0.30;;
44430;SDS011;30135;47.866;-4.222;2023-03-11T01:00:22;1.00;;;0.25;;
44430;SDS011;30135;47.866;-4.222;2023-03-11T01:02:49;1.50;;;0.43;;
44430;SDS011;30135;47.866;-4.222;2023-03-11T01:05:17;0.05;;;0.00;;
44430;SDS011;30135;47.866;-4.222;2023-03-11T01:07:48;2.30;;;0.30;;
44430;SDS011;30135;47.866;-4.222;2023-03-11T01:10:14;1.50;;;0.20;;
44430;SDS011;30135;47.866;-4.222;2023-03-11T01:12:41;2.03;;;0.25;;
44430;SDS011;30135;47.866;-4.222;2023-03-11T01:15:08;4.70;;;0.32;;
44430;SDS011;30135;47.866;-4.222;2023-03-11T01:17:49;1.95;;;0.30;;
44430;SDS011;30135;47.866;-4.222;2023-03-11T01:20:15;0.98;;;0.20;;
44430;SDS011;30135;47.866;-4.222;2023-03-11T01:22:41;1.05;;;0.17;;
44430;SDS011;30135;47.866;-4.222;2023-03-11T01:25:09;2.30;;;0.40;;
44430;SDS011;30135;47.866;-4.222;2023-03-11T01:27:40;0.32;;;0.13;;
44430;SDS011;30135;47.866;-4.222;2023-03-11T01:30:06;0.10;;;0.10;;
44430;SDS011;30135;47.866;-4.222;2023-03-11T01:32:38;2.17;;;0.30;;
44430;SDS011;30135;47.866;-4.222;2023-03-11T01:35:04;0.43;;;0.20;;
44430;SDS011;30135;47.866;-4.222;2023-03-11T01:37:30;0.63;;;0.20;;
44430;SDS011;30135;47.866;-4.222;2023-03-11T01:39:56;1.33;;;0.35;;
44430;SDS011;30135;47.866;-4.222;2023-03-11T01:42:22;0.35;;;0.20;;
44430;SDS011;30135;47.866;-4.222;2023-03-11T01:44:48;0.10;;;0.10;;
44430;SDS011;30135;47.866;-4.222;2023-03-11T01:47:34;0.28;;;0.10;;
44430;SDS011;30135;47.866;-4.222;2023-03-11T01:50:04;0.50;;;0.13;;
44430;SDS011;30135;47.866;-4.222;2023-03-11T01:52:35;0.15;;;0.10;;
44430;SDS011;30135;47.866;-4.222;2023-03-11T01:55:02;5.63;;;0.30;;
44430;SDS011;30135;47.866;-4.222;2023-03-11T01:57:30;0.73;;;0.10;;
44430;SDS011;30135;47.866;-4.222;2023-03-11T01:59:57;1.23;;;0.32;;
44430;SDS011;30135;47.866;-4.222;2023-03-11T02:02:34;1.10;;;0.10;;
44430;SDS011;30135;47.866;-4.222;2023-03-11T02:05:13;0.60;;;0.30;;
44430;SDS011;30135;47.866;-4.222;2023-03-11T02:07:40;0.52;;;0.10;;
44430;SDS011;30135;47.866;-4.222;2023-03-11T02:10:06;0.38;;;0.20;;
44430;SDS011;30135;47.866;-4.222;2023-03-11T02:12:34;0.55;;;0.25;;
44430;SDS011;30135;47.866;-4.222;2023-03-11T02:15:02;0.73;;;0.20;;
44430;SDS011;30135;47.866;-4.222;2023-03-11T02:17:31;1.67;;;0.13;;
44430;SDS011;30135;47.866;-4.222;2023-03-11T02:20:04;0.30;;;0.20;;
44430;SDS011;30135;47.866;-4.222;2023-03-11T02:22:40;0.65;;;0.30;;
44430;SDS011;30135;47.866;-4.222;2023-03-11T02:25:13;0.35;;;0.20;;
44430;SDS011;30135;47.866;-4.222;2023-03-11T02:27:59;3.22;;;0.60;;
44430;SDS011;30135;47.866;-4.222;2023-03-11T02:30:28;0.00;;;0.00;;
44430;SDS011;30135;47.866;-4.222;2023-03-11T02:32:55;4.57;;;0.38;;
44430;SDS011;30135;47.866;-4.222;2023-03-11T02:35:21;1.73;;;0.13;;
44430;SDS011;30135;47.866;-4.222;2023-03-11T02:37:50;0.60;;;0.20;;
44430;SDS011;30135;47.866;-4.222;2023-03-11T02:42:55;1.33;;;0.40;;
44430;SDS011;30135;47.866;-4.222;2023-03-11T02:45:25;3.60;;;0.90;;
44430;SDS011;30135;47.866;-4.222;2023-03-11T02:47:52;0.20;;;0.10;;
44430;SDS011;30135;47.866;-4.222;2023-03-11T02:50:21;0.65;;;0.20;;
44430;SDS011;30135;47.866;-4.222;2023-03-11T02:52:49;0.35;;;0.30;;
44430;SDS011;30135;47.866;-4.222;2023-03-11T02:55:16;0.55;;;0.10;;
44430;SDS011;30135;47.866;-4.222;2023-03-11T02:57:45;0.32;;;0.20;;
44430;SDS011;30135;47.866;-4.222;2023-03-11T03:02:42;0.25;;;0.10;;
44430;SDS011;30135;47.866;-4.222;2023-03-11T03:05:10;0.17;;;0.10;;
44430;SDS011;30135;47.866;-4.222;2023-03-11T03:07:39;0.50;;;0.40;;
44430;SDS011;30135;47.866;-4.222;2023-03-11T03:10:05;0.28;;;0.20;;
44430;SDS011;30135;47.866;-4.222;2023-03-11T03:12:32;0.85;;;0.45;;
44430;SDS011;30135;47.866;-4.222;2023-03-11T03:14:58;1.77;;;0.38;;
44430;SDS011;30135;47.866;-4.222;2023-03-11T03:17:24;0.60;;;0.40;;
44430;SDS011;30135;47.866;-4.222;2023-03-11T03:19:50;1.02;;;0.52;;
44430;SDS011;30135;47.866;-4.222;2023-03-11T03:22:16;7.25;;;1.80;;
44430;SDS011;30135;47.866;-4.222;2023-03-11T03:24:42;4.80;;;1.92;;
44430;SDS011;30135;47.866;-4.222;2023-03-11T03:27:08;8.35;;;1.90;;
44430;SDS011;30135;47.866;-4.222;2023-03-11T03:29:34;5.88;;;1.83;;
44430;SDS011;30135;47.866;-4.222;2023-03-11T03:32:00;4.65;;;1.40;;
44430;SDS011;30135;47.866;-4.222;2023-03-11T03:34:26;6.28;;;1.48;;
44430;SDS011;30135;47.866;-4.222;2023-03-11T03:36:54;4.95;;;1.90;;
44430;SDS011;30135;47.866;-4.222;2023-03-11T03:39:20;24.73;;;3.28;;
44430;SDS011;30135;47.866;-4.222;2023-03-11T03:41:46;25.42;;;6.38;;
44430;SDS011;30135;47.866;-4.222;2023-03-11T03:44:12;37.28;;;6.32;;
44430;SDS011;30135;47.866;-4.222;2023-03-11T03:46:38;28.40;;;5.05;;
44430;SDS011;30135;47.866;-4.222;2023-03-11T03:49:04;36.60;;;5.47;;
44430;SDS011;30135;47.866;-4.222;2023-03-11T03:51:30;40.75;;;5.63;;
44430;SDS011;30135;47.866;-4.222;2023-03-11T03:53:56;45.83;;;6.13;;
44430;SDS011;30135;47.866;-4.222;2023-03-11T03:56:22;37.10;;;5.93;;
44430;SDS011;30135;47.866;-4.222;2023-03-11T03:58:48;40.80;;;5.47;;
44430;SDS011;30135;47.866;-4.222;2023-03-11T04:01:14;62.03;;;6.30;;
44430;SDS011;30135;47.866;-4.222;2023-03-11T04:03:40;47.90;;;7.35;;
44430;SDS011;30135;47.866;-4.222;2023-03-11T04:06:07;46.72;;;5.97;;
44430;SDS011;30135;47.866;-4.222;2023-03-11T04:08:36;38.92;;;5.90;;
44430;SDS011;30135;47.866;-4.222;2023-03-11T04:11:02;35.55;;;5.93;;
44430;SDS011;30135;47.866;-4.222;2023-03-11T04:13:28;27.65;;;5.00;;
44430;SDS011;30135;47.866;-4.222;2023-03-11T04:15:54;36.80;;;5.68;;
44430;SDS011;30135;47.866;-4.222;2023-03-11T04:18:20;37.72;;;5.85;;
44430;SDS011;30135;47.866;-4.222;2023-03-11T04:20:47;40.55;;;6.70;;
44430;SDS011;30135;47.866;-4.222;2023-03-11T04:23:13;36.85;;;5.22;;
44430;SDS011;30135;47.866;-4.222;2023-03-11T04:25:39;47.75;;;6.78;;
44430;SDS011;30135;47.866;-4.222;2023-03-11T04:28:05;63.10;;;6.22;;
44430;SDS011;30135;47.866;-4.222;2023-03-11T04:30:31;46.00;;;5.90;;
44430;SDS011;30135;47.866;-4.222;2023-03-11T04:32:57;29.70;;;5.65;;
44430;SDS011;30135;47.866;-4.222;2023-03-11T04:35:23;46.40;;;5.60;;
44430;SDS011;30135;47.866;-4.222;2023-03-11T04:37:49;58.60;;;6.55;;
44430;SDS011;30135;47.866;-4.222;2023-03-11T04:40:15;41.33;;;5.45;;
44430;SDS011;30135;47.866;-4.222;2023-03-11T04:42:41;30.05;;;5.13;;
44430;SDS011;30135;47.866;-4.222;2023-03-11T04:45:07;38.47;;;5.97;;
44430;SDS011;30135;47.866;-4.222;2023-03-11T04:47:35;38.53;;;5.45;;
44430;SDS011;30135;47.866;-4.222;2023-03-11T04:50:01;45.35;;;7.32;;
44430;SDS011;30135;47.866;-4.222;2023-03-11T04:52:28;39.35;;;6.03;;
44430;SDS011;30135;47.866;-4.222;2023-03-11T04:54:54;47.97;;;7.05;;
44430;SDS011;30135;47.866;-4.222;2023-03-11T04:57:23;50.17;;;6.90;;
44430;SDS011;30135;47.866;-4.222;2023-03-11T04:59:49;60.70;;;6.73;;
44430;SDS011;30135;47.866;-4.222;2023-03-11T05:02:15;50.83;;;6.80;;
44430;SDS011;30135;47.866;-4.222;2023-03-11T05:04:40;53.78;;;7.00;;
44430;SDS011;30135;47.866;-4.222;2023-03-11T05:07:06;42.75;;;6.47;;
44430;SDS011;30135;47.866;-4.222;2023-03-11T05:09:33;55.88;;;7.50;;
44430;SDS011;30135;47.866;-4.222;2023-03-11T05:11:59;51.85;;;6.68;;
44430;SDS011;30135;47.866;-4.222;2023-03-11T05:14:25;67.25;;;7.90;;
44430;SDS011;30135;47.866;-4.222;2023-03-11T05:16:51;48.05;;;7.03;;
44430;SDS011;30135;47.866;-4.222;2023-03-11T05:19:17;42.72;;;6.75;;
44430;SDS011;30135;47.866;-4.222;2023-03-11T05:21:55;60.97;;;8.60;;
44430;SDS011;30135;47.866;-4.222;2023-03-11T05:24:22;52.22;;;7.00;;
44430;SDS011;30135;47.866;-4.222;2023-03-11T05:26:51;54.63;;;10.70;;
44430;SDS011;30135;47.866;-4.222;2023-03-11T05:29:18;50.05;;;7.57;;
44430;SDS011;30135;47.866;-4.222;2023-03-11T05:31:44;43.63;;;7.05;;
44430;SDS011;30135;47.866;-4.222;2023-03-11T05:34:11;71.00;;;8.90;;
44430;SDS011;30135;47.866;-4.222;2023-03-11T05:36:37;46.17;;;6.65;;
44430;SDS011;30135;47.866;-4.222;2023-03-11T05:39:03;63.80;;;7.80;;
44430;SDS011;30135;47.866;-4.222;2023-03-11T05:41:30;44.40;;;8.30;;
44430;SDS011;30135;47.866;-4.222;2023-03-11T05:43:56;60.90;;;8.60;;
44430;SDS011;30135;47.866;-4.222;2023-03-11T05:46:22;56.42;;;8.43;;
44430;SDS011;30135;47.866;-4.222;2023-03-11T05:48:48;52.58;;;9.10;;
44430;SDS011;30135;47.866;-4.222;2023-03-11T05:51:14;54.58;;;8.75;;
44430;SDS011;30135;47.866;-4.222;2023-03-11T05:53:46;58.90;;;10.38;;
44430;SDS011;30135;47.866;-4.222;2023-03-11T05:56:17;56.90;;;9.32;;
44430;SDS011;30135;47.866;-4.222;2023-03-11T05:58:45;67.07;;;9.77;;
44430;SDS011;30135;47.866;-4.222;2023-03-11T06:01:12;51.47;;;11.75;;
44430;SDS011;30135;47.866;-4.222;2023-03-11T06:03:42;66.65;;;8.23;;
44430;SDS011;30135;47.866;-4.222;2023-03-11T06:06:09;53.35;;;8.05;;
44430;SDS011;30135;47.866;-4.222;2023-03-11T06:08:37;54.13;;;10.98;;
44430;SDS011;30135;47.866;-4.222;2023-03-11T06:11:10;55.63;;;9.27;;
44430;SDS011;30135;47.866;-4.222;2023-03-11T06:13:37;61.63;;;10.57;;
44430;SDS011;30135;47.866;-4.222;2023-03-11T06:16:03;51.30;;;8.95;;
44430;SDS011;30135;47.866;-4.222;2023-03-11T06:18:30;65.03;;;8.80;;
44430;SDS011;30135;47.866;-4.222;2023-03-11T06:20:56;53.08;;;7.57;;
44430;SDS011;30135;47.866;-4.222;2023-03-11T06:23:24;53.60;;;7.32;;
44430;SDS011;30135;47.866;-4.222;2023-03-11T06:25:54;63.28;;;10.93;;
44430;SDS011;30135;47.866;-4.222;2023-03-11T06:28:26;54.60;;;8.95;;
44430;SDS011;30135;47.866;-4.222;2023-03-11T06:30:53;46.17;;;7.50;;
44430;SDS011;30135;47.866;-4.222;2023-03-11T06:33:21;50.80;;;8.82;;
44430;SDS011;30135;47.866;-4.222;2023-03-11T06:35:55;50.95;;;8.63;;
44430;SDS011;30135;47.866;-4.222;2023-03-11T06:38:25;52.05;;;8.73;;
44430;SDS011;30135;47.866;-4.222;2023-03-11T06:40:52;35.40;;;6.85;;
44430;SDS011;30135;47.866;-4.222;2023-03-11T06:43:18;53.03;;;8.50;;
44430;SDS011;30135;47.866;-4.222;2023-03-11T06:45:46;42.92;;;6.50;;
44430;SDS011;30135;47.866;-4.222;2023-03-11T06:48:12;55.47;;;7.40;;
44430;SDS011;30135;47.866;-4.222;2023-03-11T06:50:38;45.78;;;5.97;;
44430;SDS011;30135;47.866;-4.222;2023-03-11T06:53:04;54.60;;;8.00;;
44430;SDS011;30135;47.866;-4.222;2023-03-11T06:55:33;40.57;;;6.77;;
44430;SDS011;30135;47.866;-4.222;2023-03-11T06:58:00;42.17;;;7.15;;
44430;SDS011;30135;47.866;-4.222;2023-03-11T07:00:26;40.92;;;5.10;;
44430;SDS011;30135;47.866;-4.222;2023-03-11T07:02:52;42.97;;;5.78;;
44430;SDS011;30135;47.866;-4.222;2023-03-11T07:05:18;50.08;;;4.90;;
44430;SDS011;30135;47.866;-4.222;2023-03-11T07:07:44;40.90;;;6.60;;
44430;SDS011;30135;47.866;-4.222;2023-03-11T07:10:10;35.30;;;4.82;;
44430;SDS011;30135;47.866;-4.222;2023-03-11T07:12:36;36.63;;;5.70;;
44430;SDS011;30135;47.866;-4.222;2023-03-11T07:15:03;44.97;;;4.93;;
44430;SDS011;30135;47.866;-4.222;2023-03-11T07:17:29;36.85;;;5.30;;
44430;SDS011;30135;47.866;-4.222;2023-03-11T07:19:56;39.40;;;5.93;;
44430;SDS011;30135;47.866;-4.222;2023-03-11T07:22:22;37.92;;;5.82;;
44430;SDS011;30135;47.866;-4.222;2023-03-11T07:24:48;37.95;;;5.45;;
44430;SDS011;30135;47.866;-4.222;2023-03-11T07:27:14;40.33;;;5.15;;
44430;SDS011;30135;47.866;-4.222;2023-03-11T07:29:41;34.05;;;5.45;;
44430;SDS011;30135;47.866;-4.222;2023-03-11T07:32:07;49.35;;;5.70;;
44430;SDS011;30135;47.866;-4.222;2023-03-11T07:34:33;44.15;;;7.22;;
44430;SDS011;30135;47.866;-4.222;2023-03-11T07:37:00;44.13;;;5.85;;
44430;SDS011;30135;47.866;-4.222;2023-03-11T07:39:26;26.70;;;5.18;;
44430;SDS011;30135;47.866;-4.222;2023-03-11T07:41:52;35.20;;;5.88;;
44430;SDS011;30135;47.866;-4.222;2023-03-11T07:44:18;34.63;;;6.15;;
44430;SDS011;30135;47.866;-4.222;2023-03-11T07:46:44;45.40;;;5.65;;
44430;SDS011;30135;47.866;-4.222;2023-03-11T07:49:10;43.42;;;6.00;;
44430;SDS011;30135;47.866;-4.222;2023-03-11T07:51:37;39.47;;;6.30;;
44430;SDS011;30135;47.866;-4.222;2023-03-11T07:54:08;27.35;;;4.18;;
44430;SDS011;30135;47.866;-4.222;2023-03-11T07:56:36;22.30;;;4.40;;
44430;SDS011;30135;47.866;-4.222;2023-03-11T07:59:02;37.30;;;6.28;;
44430;SDS011;30135;47.866;-4.222;2023-03-11T08:01:30;37.78;;;6.13;;
44430;SDS011;30135;47.866;-4.222;2023-03-11T08:04:01;43.60;;;6.55;;
44430;SDS011;30135;47.866;-4.222;2023-03-11T08:06:29;45.55;;;7.47;;
44430;SDS011;30135;47.866;-4.222;2023-03-11T08:09:01;44.85;;;5.95;;
44430;SDS011;30135;47.866;-4.222;2023-03-11T08:11:30;44.92;;;6.20;;
44430;SDS011;30135;47.866;-4.222;2023-03-11T08:13:56;38.28;;;7.18;;
44430;SDS011;30135;47.866;-4.222;2023-03-11T08:16:23;37.03;;;8.65;;
44430;SDS011;30135;47.866;-4.222;2023-03-11T08:18:50;35.30;;;5.40;;
44430;SDS011;30135;47.866;-4.222;2023-03-11T08:21:17;25.60;;;4.40;;
44430;SDS011;30135;47.866;-4.222;2023-03-11T08:23:50;32.22;;;5.32;;
44430;SDS011;30135;47.866;-4.222;2023-03-11T08:26:19;22.90;;;3.97;;
44430;SDS011;30135;47.866;-4.222;2023-03-11T08:28:46;34.78;;;6.20;;
44430;SDS011;30135;47.866;-4.222;2023-03-11T08:31:17;33.03;;;4.82;;
44430;SDS011;30135;47.866;-4.222;2023-03-11T08:33:55;27.55;;;3.33;;
44430;SDS011;30135;47.866;-4.222;2023-03-11T08:36:30;34.33;;;5.97;;
44430;SDS011;30135;47.866;-4.222;2023-03-11T08:38:57;36.20;;;6.28;;
44430;SDS011;30135;47.866;-4.222;2023-03-11T08:41:24;38.00;;;6.35;;
44430;SDS011;30135;47.866;-4.222;2023-03-11T08:43:51;40.05;;;7.20;;
44430;SDS011;30135;47.866;-4.222;2023-03-11T08:46:24;41.58;;;5.13;;
44430;SDS011;30135;47.866;-4.222;2023-03-11T08:48:56;50.70;;;6.57;;
44430;SDS011;30135;47.866;-4.222;2023-03-11T08:51:23;33.50;;;4.72;;
44430;SDS011;30135;47.866;-4.222;2023-03-11T08:54:05;37.33;;;5.05;;
44430;SDS011;30135;47.866;-4.222;2023-03-11T08:56:37;42.45;;;5.50;;
44430;SDS011;30135;47.866;-4.222;2023-03-11T08:59:03;34.35;;;4.82;;
44430;SDS011;30135;47.866;-4.222;2023-03-11T09:01:29;49.30;;;5.43;;
44430;SDS011;30135;47.866;-4.222;2023-03-11T09:03:55;38.80;;;5.97;;
44430;SDS011;30135;47.866;-4.222;2023-03-11T09:06:21;31.85;;;6.13;;
44430;SDS011;30135;47.866;-4.222;2023-03-11T09:08:48;39.67;;;5.20;;
44430;SDS011;30135;47.866;-4.222;2023-03-11T09:11:15;41.75;;;6.00;;
44430;SDS011;30135;47.866;-4.222;2023-03-11T09:13:42;42.20;;;6.38;;
44430;SDS011;30135;47.866;-4.222;2023-03-11T09:16:11;33.05;;;5.47;;
44430;SDS011;30135;47.866;-4.222;2023-03-11T09:18:40;34.90;;;6.40;;
44430;SDS011;30135;47.866;-4.222;2023-03-11T09:21:07;51.42;;;8.85;;
44430;SDS011;30135;47.866;-4.222;2023-03-11T09:23:33;35.88;;;5.38;;
44430;SDS011;30135;47.866;-4.222;2023-03-11T09:26:06;46.65;;;7.25;;
44430;SDS011;30135;47.866;-4.222;2023-03-11T09:28:32;48.42;;;7.25;;
44430;SDS011;30135;47.866;-4.222;2023-03-11T09:30:58;48.75;;;6.22;;
44430;SDS011;30135;47.866;-4.222;2023-03-11T09:33:24;56.40;;;7.25;;
44430;SDS011;30135;47.866;-4.222;2023-03-11T09:35:50;46.00;;;6.88;;
44430;SDS011;30135;47.866;-4.222;2023-03-11T09:38:16;80.57;;;8.20;;
44430;SDS011;30135;47.866;-4.222;2023-03-11T09:40:56;45.00;;;7.28;;
44430;SDS011;30135;47.866;-4.222;2023-03-11T09:46:37;64.05;;;8.68;;
44430;SDS011;30135;47.866;-4.222;2023-03-11T09:52:37;72.57;;;10.60;;
44430;SDS011;30135;47.866;-4.222;2023-03-11T09:58:41;60.90;;;8.10;;
44430;SDS011;30135;47.866;-4.222;2023-03-11T10:04:07;63.45;;;10.27;;
44430;SDS011;30135;47.866;-4.222;2023-03-11T10:06:40;59.05;;;12.32;;
44430;SDS011;30135;47.866;-4.222;2023-03-11T10:09:28;66.50;;;8.30;;
44430;SDS011;30135;47.866;-4.222;2023-03-11T10:21:06;86.57;;;11.43;;
44430;SDS011;30135;47.866;-4.222;2023-03-11T10:27:08;77.35;;;12.27;;
44430;SDS011;30135;47.866;-4.222;2023-03-11T10:35:50;76.00;;;12.48;;
44430;SDS011;30135;47.866;-4.222;2023-03-11T10:38:21;82.90;;;11.43;;
44430;SDS011;30135;47.866;-4.222;2023-03-11T10:40:56;74.68;;;12.15;;
44430;SDS011;30135;47.866;-4.222;2023-03-11T10:44:13;78.40;;;10.27;;
44430;SDS011;30135;47.866;-4.222;2023-03-11T10:47:01;107.20;;;12.80;;
44430;SDS011;30135;47.866;-4.222;2023-03-11T10:49:28;90.60;;;13.75;;
44430;SDS011;30135;47.866;-4.222;2023-03-11T10:51:55;85.00;;;12.50;;
44430;SDS011;30135;47.866;-4.222;2023-03-11T10:54:28;98.53;;;11.82;;
44430;SDS011;30135;47.866;-4.222;2023-03-11T10:59:54;47.05;;;6.38;;
44430;SDS011;30135;47.866;-4.222;2023-03-11T11:02:30;67.15;;;8.00;;
44430;SDS011;30135;47.866;-4.222;2023-03-11T11:07:47;77.53;;;10.55;;
44430;SDS011;30135;47.866;-4.222;2023-03-11T11:10:24;61.38;;;8.07;;
44430;SDS011;30135;47.866;-4.222;2023-03-11T11:12:56;85.60;;;11.25;;
44430;SDS011;30135;47.866;-4.222;2023-03-11T11:15:32;99.35;;;14.40;;
44430;SDS011;30135;47.866;-4.222;2023-03-11T11:18:01;98.25;;;13.27;;
44430;SDS011;30135;47.866;-4.222;2023-03-11T11:20:31;103.30;;;12.98;;
44430;SDS011;30135;47.866;-4.222;2023-03-11T11:23:00;108.93;;;14.88;;
44430;SDS011;30135;47.866;-4.222;2023-03-11T11:25:32;117.55;;;16.10;;
44430;SDS011;30135;47.866;-4.222;2023-03-11T11:33:41;104.15;;;13.02;;
44430;SDS011;30135;47.866;-4.222;2023-03-11T11:36:19;89.85;;;11.88;;
44430;SDS011;30135;47.866;-4.222;2023-03-11T11:38:51;62.60;;;10.82;;
44430;SDS011;30135;47.866;-4.222;2023-03-11T11:46:17;92.65;;;13.30;;
44430;SDS011;30135;47.866;-4.222;2023-03-11T11:49:20;96.25;;;13.30;;
44430;SDS011;30135;47.866;-4.222;2023-03-11T11:52:02;74.32;;;10.07;;
44430;SDS011;30135;47.866;-4.222;2023-03-11T11:54:52;91.35;;;14.13;;
44430;SDS011;30135;47.866;-4.222;2023-03-11T11:57:30;110.68;;;13.13;;
44430;SDS011;30135;47.866;-4.222;2023-03-11T11:59:57;109.60;;;16.90;;
44430;SDS011;30135;47.866;-4.222;2023-03-11T12:05:09;103.10;;;13.13;;
44430;SDS011;30135;47.866;-4.222;2023-03-11T12:07:56;97.60;;;14.20;;
44430;SDS011;30135;47.866;-4.222;2023-03-11T12:16:57;82.75;;;14.57;;
44430;SDS011;30135;47.866;-4.222;2023-03-11T12:31:14;68.63;;;9.30;;
44430;SDS011;30135;47.866;-4.222;2023-03-11T12:33:41;92.25;;;13.35;;
44430;SDS011;30135;47.866;-4.222;2023-03-11T12:36:30;92.60;;;12.27;;
44430;SDS011;30135;47.866;-4.222;2023-03-11T12:39:03;65.93;;;10.05;;
44430;SDS011;30135;47.866;-4.222;2023-03-11T12:41:36;85.68;;;12.00;;
44430;SDS011;30135;47.866;-4.222;2023-03-11T12:46:59;72.32;;;11.93;;
44430;SDS011;30135;47.866;-4.222;2023-03-11T12:54:43;93.25;;;11.25;;
44430;SDS011;30135;47.866;-4.222;2023-03-11T12:57:36;79.60;;;13.50;;
44430;SDS011;30135;47.866;-4.222;2023-03-11T13:09:28;97.25;;;11.30;;
44430;SDS011;30135;47.866;-4.222;2023-03-11T13:11:54;71.35;;;10.43;;
44430;SDS011;30135;47.866;-4.222;2023-03-11T13:14:26;96.13;;;12.05;;
44430;SDS011;30135;47.866;-4.222;2023-03-11T13:16:54;84.05;;;11.77;;
44430;SDS011;30135;47.866;-4.222;2023-03-11T13:21:54;81.90;;;11.10;;
44430;SDS011;30135;47.866;-4.222;2023-03-11T13:32:31;112.90;;;13.82;;
44430;SDS011;30135;47.866;-4.222;2023-03-11T13:40:55;85.65;;;14.85;;
44430;SDS011;30135;47.866;-4.222;2023-03-11T13:43:21;92.80;;;11.80;;
44430;SDS011;30135;47.866;-4.222;2023-03-11T13:45:58;85.65;;;11.82;;
44430;SDS011;30135;47.866;-4.222;2023-03-11T13:48:30;88.15;;;12.52;;
44430;SDS011;30135;47.866;-4.222;2023-03-11T13:53:56;89.05;;;11.68;;
44430;SDS011;30135;47.866;-4.222;2023-03-11T13:56:32;97.00;;;12.25;;
44430;SDS011;30135;47.866;-4.222;2023-03-11T13:59:23;79.90;;;10.90;;
44430;SDS011;30135;47.866;-4.222;2023-03-11T14:01:56;86.28;;;11.63;;
44430;SDS011;30135;47.866;-4.222;2023-03-11T14:04:29;83.70;;;10.77;;
44430;SDS011;30135;47.866;-4.222;2023-03-11T14:06:59;70.70;;;10.10;;
44430;SDS011;30135;47.866;-4.222;2023-03-11T14:12:36;95.78;;;11.35;;
44430;SDS011;30135;47.866;-4.222;2023-03-11T14:15:03;60.40;;;11.00;;
44430;SDS011;30135;47.866;-4.222;2023-03-11T14:17:32;59.75;;;9.68;;
44430;SDS011;30135;47.866;-4.222;2023-03-11T14:20:06;76.00;;;11.60;;
44430;SDS011;30135;47.866;-4.222;2023-03-11T14:22:44;68.70;;;9.13;;
44430;SDS011;30135;47.866;-4.222;2023-03-11T14:25:23;68.80;;;10.43;;
44430;SDS011;30135;47.866;-4.222;2023-03-11T14:28:35;74.50;;;11.38;;
44430;SDS011;30135;47.866;-4.222;2023-03-11T14:31:05;78.93;;;12.40;;
44430;SDS011;30135;47.866;-4.222;2023-03-11T14:33:30;64.63;;;10.55;;
44430;SDS011;30135;47.866;-4.222;2023-03-11T14:36:03;105.97;;;16.90;;
44430;SDS011;30135;47.866;-4.222;2023-03-11T14:38:40;76.95;;;11.27;;
44430;SDS011;30135;47.866;-4.222;2023-03-11T14:41:09;69.57;;;10.27;;
44430;SDS011;30135;47.866;-4.222;2023-03-11T14:43:39;61.33;;;9.23;;
44430;SDS011;30135;47.866;-4.222;2023-03-11T14:46:14;52.92;;;9.43;;
44430;SDS011;30135;47.866;-4.222;2023-03-11T14:48:47;75.13;;;11.45;;
44430;SDS011;30135;47.866;-4.222;2023-03-11T14:51:15;65.57;;;9.13;;
44430;SDS011;30135;47.866;-4.222;2023-03-11T14:53:52;61.42;;;12.02;;
44430;SDS011;30135;47.866;-4.222;2023-03-11T14:56:29;69.75;;;13.32;;
44430;SDS011;30135;47.866;-4.222;2023-03-11T14:59:10;82.07;;;10.32;;
44430;SDS011;30135;47.866;-4.222;2023-03-11T15:01:50;75.68;;;10.48;;
44430;SDS011;30135;47.866;-4.222;2023-03-11T15:04:37;88.77;;;13.00;;
44430;SDS011;30135;47.866;-4.222;2023-03-11T15:07:08;68.13;;;8.93;;
44430;SDS011;30135;47.866;-4.222;2023-03-11T15:09:36;79.22;;;9.45;;
44430;SDS011;30135;47.866;-4.222;2023-03-11T15:12:05;64.30;;;9.90;;
44430;SDS011;30135;47.866;-4.222;2023-03-11T15:14:33;59.00;;;9.60;;
44430;SDS011;30135;47.866;-4.222;2023-03-11T15:19:45;52.58;;;8.25;;
44430;SDS011;30135;47.866;-4.222;2023-03-11T15:25:17;76.68;;;9.90;;
44430;SDS011;30135;47.866;-4.222;2023-03-11T15:27:44;72.97;;;11.40;;
44430;SDS011;30135;47.866;-4.222;2023-03-11T15:30:27;79.25;;;9.55;;
44430;SDS011;30135;47.866;-4.222;2023-03-11T15:32:55;72.78;;;11.65;;
44430;SDS011;30135;47.866;-4.222;2023-03-11T15:35:26;80.93;;;11.68;;
44430;SDS011;30135;47.866;-4.222;2023-03-11T15:40:57;55.30;;;8.85;;
44430;SDS011;30135;47.866;-4.222;2023-03-11T15:43:29;55.22;;;8.38;;
44430;SDS011;30135;47.866;-4.222;2023-03-11T15:45:59;50.50;;;9.65;;
44430;SDS011;30135;47.866;-4.222;2023-03-11T15:48:27;54.03;;;8.02;;
44430;SDS011;30135;47.866;-4.222;2023-03-11T15:50:58;79.18;;;11.55;;
44430;SDS011;30135;47.866;-4.222;2023-03-11T15:53:25;51.42;;;8.32;;
44430;SDS011;30135;47.866;-4.222;2023-03-11T15:55:53;74.72;;;9.43;;
44430;SDS011;30135;47.866;-4.222;2023-03-11T15:58:25;80.63;;;12.90;;
44430;SDS011;30135;47.866;-4.222;2023-03-11T16:00:53;77.55;;;10.68;;
44430;SDS011;30135;47.866;-4.222;2023-03-11T16:03:20;61.92;;;9.88;;
44430;SDS011;30135;47.866;-4.222;2023-03-11T16:05:47;73.22;;;9.88;;
44430;SDS011;30135;47.866;-4.222;2023-03-11T16:08:14;69.82;;;9.02;;
44430;SDS011;30135;47.866;-4.222;2023-03-11T16:10:40;63.30;;;8.43;;
44430;SDS011;30135;47.866;-4.222;2023-03-11T16:13:09;96.93;;;11.95;;
44430;SDS011;30135;47.866;-4.222;2023-03-11T16:15:47;60.10;;;10.05;;
44430;SDS011;30135;47.866;-4.222;2023-03-11T16:18:13;57.38;;;12.40;;
44430;SDS011;30135;47.866;-4.222;2023-03-11T16:20:40;52.25;;;8.05;;
44430;SDS011;30135;47.866;-4.222;2023-03-11T16:23:17;77.65;;;10.13;;
44430;SDS011;30135;47.866;-4.222;2023-03-11T16:25:47;80.72;;;11.88;;
44430;SDS011;30135;47.866;-4.222;2023-03-11T16:28:13;67.60;;;10.13;;
44430;SDS011;30135;47.866;-4.222;2023-03-11T16:30:41;67.18;;;8.68;;
44430;SDS011;30135;47.866;-4.222;2023-03-11T16:33:07;90.07;;;10.75;;
44430;SDS011;30135;47.866;-4.222;2023-03-11T16:35:33;67.35;;;10.63;;
44430;SDS011;30135;47.866;-4.222;2023-03-11T16:38:00;62.15;;;9.77;;